sensor_id;sensor_type;location;lat;lon;timestamp;P1;durP1;ratioP1;P2;durP2;ratioP2
43933;SDS011;59081;42.706;23.306;2022-12-13T00:01:54;9.13;;;4.68;;
43933;SDS011;59081;42.706;23.306;2022-12-13T00:04:21;9.57;;;5.32;;
43933;SDS011;59081;42.706;23.306;2022-12-13T00:06:53;7.13;;;4.60;;
43933;SDS011;59081;42.706;23.306;2022-12-13T00:09:21;8.57;;;5.32;;
43933;SDS011;59081;42.706;23.306;2022-12-13T00:11:53;7.18;;;4.70;;
43933;SDS011;59081;42.706;23.306;2022-12-13T00:14:32;9.40;;;4.60;;
43933;SDS011;59081;42.706;23.306;2022-12-13T00:16:58;7.60;;;5.05;;
43933;SDS011;59081;42.706;23.306;2022-12-13T00:19:23;10.27;;;5.20;;
43933;SDS011;59081;42.706;23.306;2022-12-13T00:21:51;9.20;;;5.45;;
43933;SDS011;59081;42.706;23.306;2022-12-13T00:24:23;9.35;;;5.55;;
43933;SDS011;59081;42.706;23.306;2022-12-13T00:26:48;9.85;;;5.88;;
43933;SDS011;59081;42.706;23.306;2022-12-13T00:29:14;10.90;;;6.25;;
43933;SDS011;59081;42.706;23.306;2022-12-13T00:31:45;8.52;;;5.18;;
43933;SDS011;59081;42.706;23.306;2022-12-13T00:34:13;8.97;;;6.03;;
43933;SDS011;59081;42.706;23.306;2022-12-13T00:36:42;10.98;;;5.70;;
43933;SDS011;59081;42.706;23.306;2022-12-13T00:39:08;9.73;;;6.07;;
43933;SDS011;59081;42.706;23.306;2022-12-13T00:41:39;10.77;;;7.35;;
43933;SDS011;59081;42.706;23.306;2022-12-13T00:44:10;12.50;;;6.78;;
43933;SDS011;59081;42.706;23.306;2022-12-13T00:46:40;8.63;;;5.32;;
43933;SDS011;59081;42.706;23.306;2022-12-13T00:49:06;11.27;;;5.00;;
43933;SDS011;59081;42.706;23.306;2022-12-13T00:51:35;11.05;;;5.57;;
43933;SDS011;59081;42.706;23.306;2022-12-13T00:54:03;12.25;;;5.38;;
43933;SDS011;59081;42.706;23.306;2022-12-13T00:56:30;11.85;;;6.55;;
43933;SDS011;59081;42.706;23.306;2022-12-13T00:58:57;11.25;;;6.25;;
43933;SDS011;59081;42.706;23.306;2022-12-13T01:01:26;12.63;;;6.53;;
43933;SDS011;59081;42.706;23.306;2022-12-13T01:04:07;12.57;;;6.47;;
43933;SDS011;59081;42.706;23.306;2022-12-13T01:06:41;12.18;;;5.70;;
43933;SDS011;59081;42.706;23.306;2022-12-13T01:09:21;13.00;;;7.43;;
43933;SDS011;59081;42.706;23.306;2022-12-13T01:12:02;11.82;;;6.75;;
43933;SDS011;59081;42.706;23.306;2022-12-13T01:14:38;12.73;;;6.55;;
43933;SDS011;59081;42.706;23.306;2022-12-13T01:17:10;15.23;;;7.67;;
43933;SDS011;59081;42.706;23.306;2022-12-13T01:19:43;11.55;;;6.35;;
43933;SDS011;59081;42.706;23.306;2022-12-13T01:22:08;9.88;;;5.55;;
43933;SDS011;59081;42.706;23.306;2022-12-13T01:24:41;10.40;;;6.07;;
43933;SDS011;59081;42.706;23.306;2022-12-13T01:27:15;13.02;;;6.72;;
43933;SDS011;59081;42.706;23.306;2022-12-13T01:29:41;12.70;;;7.18;;
43933;SDS011;59081;42.706;23.306;2022-12-13T01:32:07;10.35;;;6.55;;
43933;SDS011;59081;42.706;23.306;2022-12-13T01:34:36;12.85;;;7.20;;
43933;SDS011;59081;42.706;23.306;2022-12-13T01:37:04;15.18;;;7.68;;
43933;SDS011;59081;42.706;23.306;2022-12-13T01:39:33;12.48;;;7.13;;
43933;SDS011;59081;42.706;23.306;2022-12-13T01:41:58;11.00;;;7.47;;
43933;SDS011;59081;42.706;23.306;2022-12-13T01:47:25;12.48;;;6.93;;
43933;SDS011;59081;42.706;23.306;2022-12-13T01:50:02;6.78;;;4.38;;
43933;SDS011;59081;42.706;23.306;2022-12-13T01:52:37;15.18;;;6.53;;
43933;SDS011;59081;42.706;23.306;2022-12-13T01:55:05;13.85;;;8.07;;
43933;SDS011;59081;42.706;23.306;2022-12-13T01:57:35;14.18;;;7.43;;
43933;SDS011;59081;42.706;23.306;2022-12-13T02:00:06;14.13;;;7.70;;
43933;SDS011;59081;42.706;23.306;2022-12-13T02:02:42;13.75;;;8.00;;
43933;SDS011;59081;42.706;23.306;2022-12-13T02:05:14;22.60;;;8.27;;
43933;SDS011;59081;42.706;23.306;2022-12-13T02:07:54;12.23;;;7.25;;
43933;SDS011;59081;42.706;23.306;2022-12-13T02:10:27;14.90;;;8.02;;
43933;SDS011;59081;42.706;23.306;2022-12-13T02:12:56;12.27;;;6.90;;
43933;SDS011;59081;42.706;23.306;2022-12-13T02:15:23;13.00;;;7.07;;
43933;SDS011;59081;42.706;23.306;2022-12-13T02:21:00;16.60;;;8.65;;
43933;SDS011;59081;42.706;23.306;2022-12-13T02:23:36;13.35;;;7.40;;
43933;SDS011;59081;42.706;23.306;2022-12-13T02:26:23;15.82;;;8.70;;
43933;SDS011;59081;42.706;23.306;2022-12-13T02:29:50;16.77;;;6.53;;
43933;SDS011;59081;42.706;23.306;2022-12-13T02:32:10;15.65;;;9.02;;
43933;SDS011;59081;42.706;23.306;2022-12-13T02:34:44;16.92;;;9.30;;
43933;SDS011;59081;42.706;23.306;2022-12-13T02:40:04;16.27;;;9.10;;
43933;SDS011;59081;42.706;23.306;2022-12-13T02:43:05;16.90;;;8.93;;
43933;SDS011;59081;42.706;23.306;2022-12-13T02:46:04;15.25;;;9.23;;
43933;SDS011;59081;42.706;23.306;2022-12-13T02:48:36;14.02;;;7.53;;
43933;SDS011;59081;42.706;23.306;2022-12-13T02:51:07;14.80;;;8.15;;
43933;SDS011;59081;42.706;23.306;2022-12-13T02:53:38;16.87;;;10.03;;
43933;SDS011;59081;42.706;23.306;2022-12-13T02:56:16;16.73;;;8.90;;
43933;SDS011;59081;42.706;23.306;2022-12-13T02:58:48;19.15;;;9.15;;
43933;SDS011;59081;42.706;23.306;2022-12-13T03:04:19;14.48;;;9.43;;
43933;SDS011;59081;42.706;23.306;2022-12-13T03:07:27;18.60;;;10.27;;
43933;SDS011;59081;42.706;23.306;2022-12-13T03:10:23;9.40;;;4.97;;
43933;SDS011;59081;42.706;23.306;2022-12-13T03:13:12;21.77;;;10.73;;
43933;SDS011;59081;42.706;23.306;2022-12-13T03:18:52;19.17;;;10.02;;
43933;SDS011;59081;42.706;23.306;2022-12-13T03:21:21;16.48;;;8.85;;
43933;SDS011;59081;42.706;23.306;2022-12-13T03:24:10;18.08;;;10.20;;
43933;SDS011;59081;42.706;23.306;2022-12-13T03:26:44;21.77;;;10.88;;
43933;SDS011;59081;42.706;23.306;2022-12-13T03:29:11;19.88;;;10.65;;
43933;SDS011;59081;42.706;23.306;2022-12-13T03:31:36;21.80;;;11.10;;
43933;SDS011;59081;42.706;23.306;2022-12-13T03:34:02;16.15;;;8.18;;
43933;SDS011;59081;42.706;23.306;2022-12-13T03:36:27;20.38;;;12.23;;
43933;SDS011;59081;42.706;23.306;2022-12-13T03:38:53;19.80;;;10.75;;
43933;SDS011;59081;42.706;23.306;2022-12-13T03:41:21;22.15;;;12.10;;
43933;SDS011;59081;42.706;23.306;2022-12-13T03:43:55;20.02;;;10.45;;
43933;SDS011;59081;42.706;23.306;2022-12-13T03:46:21;19.67;;;10.18;;
43933;SDS011;59081;42.706;23.306;2022-12-13T03:48:47;18.88;;;10.55;;
43933;SDS011;59081;42.706;23.306;2022-12-13T03:51:12;15.68;;;9.57;;
43933;SDS011;59081;42.706;23.306;2022-12-13T03:53:38;21.63;;;12.85;;
43933;SDS011;59081;42.706;23.306;2022-12-13T03:56:04;20.40;;;10.32;;
43933;SDS011;59081;42.706;23.306;2022-12-13T03:58:30;17.92;;;12.48;;
43933;SDS011;59081;42.706;23.306;2022-12-13T04:00:57;21.45;;;10.90;;
43933;SDS011;59081;42.706;23.306;2022-12-13T04:03:23;19.50;;;11.75;;
43933;SDS011;59081;42.706;23.306;2022-12-13T04:05:49;18.77;;;10.43;;
43933;SDS011;59081;42.706;23.306;2022-12-13T04:08:14;18.63;;;10.63;;
43933;SDS011;59081;42.706;23.306;2022-12-13T04:10:40;18.02;;;10.15;;
43933;SDS011;59081;42.706;23.306;2022-12-13T04:13:05;16.75;;;10.00;;
43933;SDS011;59081;42.706;23.306;2022-12-13T04:15:49;15.13;;;9.77;;
43933;SDS011;59081;42.706;23.306;2022-12-13T04:18:15;19.48;;;11.52;;
43933;SDS011;59081;42.706;23.306;2022-12-13T04:20:42;19.83;;;10.65;;
43933;SDS011;59081;42.706;23.306;2022-12-13T04:23:08;8.77;;;5.07;;
43933;SDS011;59081;42.706;23.306;2022-12-13T04:25:33;20.15;;;10.60;;
43933;SDS011;59081;42.706;23.306;2022-12-13T04:27:59;19.55;;;10.07;;
43933;SDS011;59081;42.706;23.306;2022-12-13T04:30:24;18.80;;;10.18;;
43933;SDS011;59081;42.706;23.306;2022-12-13T04:32:50;17.45;;;10.52;;
43933;SDS011;59081;42.706;23.306;2022-12-13T04:35:15;19.80;;;10.60;;
43933;SDS011;59081;42.706;23.306;2022-12-13T04:37:41;21.90;;;10.52;;
43933;SDS011;59081;42.706;23.306;2022-12-13T04:40:07;17.98;;;10.80;;
43933;SDS011;59081;42.706;23.306;2022-12-13T04:42:32;20.30;;;11.02;;
43933;SDS011;59081;42.706;23.306;2022-12-13T04:44:58;20.40;;;11.30;;
43933;SDS011;59081;42.706;23.306;2022-12-13T04:47:24;22.25;;;10.68;;
43933;SDS011;59081;42.706;23.306;2022-12-13T04:49:49;19.25;;;9.95;;
43933;SDS011;59081;42.706;23.306;2022-12-13T04:52:14;22.42;;;13.10;;
43933;SDS011;59081;42.706;23.306;2022-12-13T04:54:40;12.65;;;5.93;;
43933;SDS011;59081;42.706;23.306;2022-12-13T04:57:06;18.40;;;10.48;;
43933;SDS011;59081;42.706;23.306;2022-12-13T04:59:34;18.35;;;10.40;;
43933;SDS011;59081;42.706;23.306;2022-12-13T05:02:00;20.35;;;10.52;;
43933;SDS011;59081;42.706;23.306;2022-12-13T05:04:26;17.60;;;10.00;;
43933;SDS011;59081;42.706;23.306;2022-12-13T05:06:52;20.52;;;12.27;;
43933;SDS011;59081;42.706;23.306;2022-12-13T05:09:18;20.70;;;11.50;;
43933;SDS011;59081;42.706;23.306;2022-12-13T05:11:43;20.45;;;8.82;;
43933;SDS011;59081;42.706;23.306;2022-12-13T05:14:09;21.40;;;12.32;;
43933;SDS011;59081;42.706;23.306;2022-12-13T05:16:37;20.45;;;10.85;;
43933;SDS011;59081;42.706;23.306;2022-12-13T05:19:05;18.45;;;11.35;;
43933;SDS011;59081;42.706;23.306;2022-12-13T05:21:30;23.13;;;11.65;;
43933;SDS011;59081;42.706;23.306;2022-12-13T05:23:59;23.02;;;14.25;;
43933;SDS011;59081;42.706;23.306;2022-12-13T05:26:26;20.88;;;10.02;;
43933;SDS011;59081;42.706;23.306;2022-12-13T05:28:54;21.80;;;11.57;;
43933;SDS011;59081;42.706;23.306;2022-12-13T05:31:20;20.45;;;11.23;;
43933;SDS011;59081;42.706;23.306;2022-12-13T05:33:46;19.08;;;10.88;;
43933;SDS011;59081;42.706;23.306;2022-12-13T05:36:11;18.48;;;10.25;;
43933;SDS011;59081;42.706;23.306;2022-12-13T05:38:37;22.08;;;11.45;;
43933;SDS011;59081;42.706;23.306;2022-12-13T05:41:02;20.27;;;10.55;;
43933;SDS011;59081;42.706;23.306;2022-12-13T05:43:28;22.88;;;12.10;;
43933;SDS011;59081;42.706;23.306;2022-12-13T05:45:53;19.73;;;11.85;;
43933;SDS011;59081;42.706;23.306;2022-12-13T05:48:19;19.83;;;9.18;;
43933;SDS011;59081;42.706;23.306;2022-12-13T05:50:44;17.63;;;10.98;;
43933;SDS011;59081;42.706;23.306;2022-12-13T05:53:10;17.48;;;10.13;;
43933;SDS011;59081;42.706;23.306;2022-12-13T05:55:36;22.02;;;12.40;;
43933;SDS011;59081;42.706;23.306;2022-12-13T05:58:02;18.73;;;11.00;;
43933;SDS011;59081;42.706;23.306;2022-12-13T06:00:28;21.45;;;10.95;;
43933;SDS011;59081;42.706;23.306;2022-12-13T06:02:54;16.88;;;9.10;;
43933;SDS011;59081;42.706;23.306;2022-12-13T06:05:19;20.83;;;10.35;;
43933;SDS011;59081;42.706;23.306;2022-12-13T06:07:45;20.30;;;11.02;;
43933;SDS011;59081;42.706;23.306;2022-12-13T06:10:10;17.88;;;8.98;;
43933;SDS011;59081;42.706;23.306;2022-12-13T06:12:36;19.98;;;10.85;;
43933;SDS011;59081;42.706;23.306;2022-12-13T06:15:03;21.25;;;10.85;;
43933;SDS011;59081;42.706;23.306;2022-12-13T06:17:33;25.55;;;11.32;;
43933;SDS011;59081;42.706;23.306;2022-12-13T06:20:00;20.02;;;10.32;;
43933;SDS011;59081;42.706;23.306;2022-12-13T06:22:26;20.92;;;11.30;;
43933;SDS011;59081;42.706;23.306;2022-12-13T06:24:52;18.48;;;10.70;;
43933;SDS011;59081;42.706;23.306;2022-12-13T06:27:18;14.52;;;7.13;;
43933;SDS011;59081;42.706;23.306;2022-12-13T06:29:43;23.52;;;13.70;;
43933;SDS011;59081;42.706;23.306;2022-12-13T06:32:09;20.30;;;12.50;;
43933;SDS011;59081;42.706;23.306;2022-12-13T06:34:34;20.83;;;12.00;;
43933;SDS011;59081;42.706;23.306;2022-12-13T06:37:01;23.80;;;10.85;;
43933;SDS011;59081;42.706;23.306;2022-12-13T06:39:28;25.92;;;14.52;;
43933;SDS011;59081;42.706;23.306;2022-12-13T06:41:54;29.15;;;17.30;;
43933;SDS011;59081;42.706;23.306;2022-12-13T06:44:20;21.10;;;10.90;;
43933;SDS011;59081;42.706;23.306;2022-12-13T06:46:46;18.83;;;7.97;;
43933;SDS011;59081;42.706;23.306;2022-12-13T06:49:11;25.52;;;12.95;;
43933;SDS011;59081;42.706;23.306;2022-12-13T06:51:37;19.70;;;11.35;;
43933;SDS011;59081;42.706;23.306;2022-12-13T06:54:05;21.45;;;11.57;;
43933;SDS011;59081;42.706;23.306;2022-12-13T06:56:30;20.77;;;12.13;;
43933;SDS011;59081;42.706;23.306;2022-12-13T06:58:59;20.33;;;11.95;;
43933;SDS011;59081;42.706;23.306;2022-12-13T07:01:24;20.90;;;11.30;;
43933;SDS011;59081;42.706;23.306;2022-12-13T07:03:50;15.75;;;6.43;;
43933;SDS011;59081;42.706;23.306;2022-12-13T07:06:19;21.88;;;11.68;;
43933;SDS011;59081;42.706;23.306;2022-12-13T07:08:49;23.00;;;13.80;;
43933;SDS011;59081;42.706;23.306;2022-12-13T07:11:19;23.20;;;12.48;;
43933;SDS011;59081;42.706;23.306;2022-12-13T07:13:49;21.38;;;12.88;;
43933;SDS011;59081;42.706;23.306;2022-12-13T07:16:15;24.98;;;13.38;;
43933;SDS011;59081;42.706;23.306;2022-12-13T07:18:41;19.90;;;10.40;;
43933;SDS011;59081;42.706;23.306;2022-12-13T07:21:06;25.58;;;13.27;;
43933;SDS011;59081;42.706;23.306;2022-12-13T07:23:34;25.27;;;14.43;;
43933;SDS011;59081;42.706;23.306;2022-12-13T07:26:01;22.88;;;12.27;;
43933;SDS011;59081;42.706;23.306;2022-12-13T07:28:27;20.13;;;11.98;;
43933;SDS011;59081;42.706;23.306;2022-12-13T07:30:52;19.80;;;9.35;;
43933;SDS011;59081;42.706;23.306;2022-12-13T07:33:18;19.98;;;11.23;;
43933;SDS011;59081;42.706;23.306;2022-12-13T07:35:43;16.90;;;6.72;;
43933;SDS011;59081;42.706;23.306;2022-12-13T07:38:09;23.80;;;11.80;;
43933;SDS011;59081;42.706;23.306;2022-12-13T07:40:36;22.83;;;12.80;;
43933;SDS011;59081;42.706;23.306;2022-12-13T07:43:03;25.05;;;12.68;;
43933;SDS011;59081;42.706;23.306;2022-12-13T07:45:30;26.70;;;13.00;;
43933;SDS011;59081;42.706;23.306;2022-12-13T07:47:56;27.02;;;14.80;;
43933;SDS011;59081;42.706;23.306;2022-12-13T07:50:23;21.92;;;10.85;;
43933;SDS011;59081;42.706;23.306;2022-12-13T07:52:49;26.35;;;13.50;;
43933;SDS011;59081;42.706;23.306;2022-12-13T07:55:15;29.40;;;15.77;;
43933;SDS011;59081;42.706;23.306;2022-12-13T07:57:42;31.70;;;15.80;;
43933;SDS011;59081;42.706;23.306;2022-12-13T08:00:10;29.33;;;13.52;;
43933;SDS011;59081;42.706;23.306;2022-12-13T08:02:36;30.02;;;15.80;;
43933;SDS011;59081;42.706;23.306;2022-12-13T08:05:01;24.42;;;13.70;;
43933;SDS011;59081;42.706;23.306;2022-12-13T08:07:27;27.88;;;13.73;;
43933;SDS011;59081;42.706;23.306;2022-12-13T08:09:52;26.17;;;13.15;;
43933;SDS011;59081;42.706;23.306;2022-12-13T08:12:19;27.58;;;14.73;;
43933;SDS011;59081;42.706;23.306;2022-12-13T08:14:45;25.95;;;13.13;;
43933;SDS011;59081;42.706;23.306;2022-12-13T08:17:10;26.95;;;16.55;;
43933;SDS011;59081;42.706;23.306;2022-12-13T08:19:36;28.20;;;15.65;;
43933;SDS011;59081;42.706;23.306;2022-12-13T08:27:13;26.13;;;13.30;;
43933;SDS011;59081;42.706;23.306;2022-12-13T08:29:39;19.92;;;11.63;;
43933;SDS011;59081;42.706;23.306;2022-12-13T08:32:08;25.17;;;12.02;;
43933;SDS011;59081;42.706;23.306;2022-12-13T08:37:01;49.58;;;19.60;;
43933;SDS011;59081;42.706;23.306;2022-12-13T08:39:27;19.25;;;10.63;;
43933;SDS011;59081;42.706;23.306;2022-12-13T08:41:54;21.65;;;11.30;;
43933;SDS011;59081;42.706;23.306;2022-12-13T08:44:19;19.55;;;8.93;;
43933;SDS011;59081;42.706;23.306;2022-12-13T08:46:45;16.60;;;9.77;;
43933;SDS011;59081;42.706;23.306;2022-12-13T08:49:11;18.73;;;11.18;;
43933;SDS011;59081;42.706;23.306;2022-12-13T08:51:39;14.10;;;9.60;;
43933;SDS011;59081;42.706;23.306;2022-12-13T08:54:05;13.70;;;8.15;;
43933;SDS011;59081;42.706;23.306;2022-12-13T08:56:30;15.13;;;9.25;;
43933;SDS011;59081;42.706;23.306;2022-12-13T08:58:56;17.60;;;8.65;;
43933;SDS011;59081;42.706;23.306;2022-12-13T09:01:22;15.75;;;7.80;;
43933;SDS011;59081;42.706;23.306;2022-12-13T09:03:48;14.23;;;6.97;;
43933;SDS011;59081;42.706;23.306;2022-12-13T09:06:16;14.80;;;7.65;;
43933;SDS011;59081;42.706;23.306;2022-12-13T09:08:42;12.65;;;7.05;;
43933;SDS011;59081;42.706;23.306;2022-12-13T09:11:09;13.30;;;6.90;;
43933;SDS011;59081;42.706;23.306;2022-12-13T09:13:36;16.35;;;8.20;;
43933;SDS011;59081;42.706;23.306;2022-12-13T09:16:03;13.43;;;6.80;;
43933;SDS011;59081;42.706;23.306;2022-12-13T09:18:30;10.77;;;6.80;;
43933;SDS011;59081;42.706;23.306;2022-12-13T09:20:56;11.68;;;6.82;;
43933;SDS011;59081;42.706;23.306;2022-12-13T09:23:21;10.38;;;6.03;;
43933;SDS011;59081;42.706;23.306;2022-12-13T09:25:53;11.15;;;6.00;;
43933;SDS011;59081;42.706;23.306;2022-12-13T09:28:20;9.93;;;5.82;;
43933;SDS011;59081;42.706;23.306;2022-12-13T09:30:45;8.48;;;5.63;;
43933;SDS011;59081;42.706;23.306;2022-12-13T09:33:11;12.30;;;6.07;;
43933;SDS011;59081;42.706;23.306;2022-12-13T09:35:37;13.07;;;6.70;;
43933;SDS011;59081;42.706;23.306;2022-12-13T09:38:03;12.93;;;6.90;;
43933;SDS011;59081;42.706;23.306;2022-12-13T09:40:28;10.52;;;6.20;;
43933;SDS011;59081;42.706;23.306;2022-12-13T09:42:55;16.60;;;6.60;;
43933;SDS011;59081;42.706;23.306;2022-12-13T09:45:22;10.63;;;5.55;;
43933;SDS011;59081;42.706;23.306;2022-12-13T09:47:48;12.77;;;6.70;;
43933;SDS011;59081;42.706;23.306;2022-12-13T09:50:26;11.27;;;6.82;;
43933;SDS011;59081;42.706;23.306;2022-12-13T09:52:59;15.10;;;7.75;;
43933;SDS011;59081;42.706;23.306;2022-12-13T09:55:43;14.50;;;7.03;;
43933;SDS011;59081;42.706;23.306;2022-12-13T09:58:13;16.15;;;8.32;;
43933;SDS011;59081;42.706;23.306;2022-12-13T10:00:40;13.77;;;7.57;;
43933;SDS011;59081;42.706;23.306;2022-12-13T10:03:09;16.48;;;8.68;;
43933;SDS011;59081;42.706;23.306;2022-12-13T10:05:38;14.18;;;7.68;;
43933;SDS011;59081;42.706;23.306;2022-12-13T10:08:10;19.33;;;9.43;;
43933;SDS011;59081;42.706;23.306;2022-12-13T10:10:37;19.98;;;9.30;;
43933;SDS011;59081;42.706;23.306;2022-12-13T10:14:05;18.63;;;8.18;;
43933;SDS011;59081;42.706;23.306;2022-12-13T10:16:03;16.75;;;8.93;;
43933;SDS011;59081;42.706;23.306;2022-12-13T10:18:34;17.80;;;9.82;;
43933;SDS011;59081;42.706;23.306;2022-12-13T10:21:20;18.77;;;9.50;;
43933;SDS011;59081;42.706;23.306;2022-12-13T10:23:46;16.58;;;9.88;;
43933;SDS011;59081;42.706;23.306;2022-12-13T10:26:12;16.52;;;8.85;;
43933;SDS011;59081;42.706;23.306;2022-12-13T10:28:38;15.45;;;7.55;;
43933;SDS011;59081;42.706;23.306;2022-12-13T10:31:04;17.02;;;9.63;;
43933;SDS011;59081;42.706;23.306;2022-12-13T10:33:32;11.45;;;6.85;;
43933;SDS011;59081;42.706;23.306;2022-12-13T10:36:05;9.13;;;5.10;;
43933;SDS011;59081;42.706;23.306;2022-12-13T10:38:34;11.52;;;6.43;;
43933;SDS011;59081;42.706;23.306;2022-12-13T10:41:01;10.18;;;6.22;;
43933;SDS011;59081;42.706;23.306;2022-12-13T10:43:27;12.88;;;7.45;;
43933;SDS011;59081;42.706;23.306;2022-12-13T10:48:20;10.45;;;5.93;;
43933;SDS011;59081;42.706;23.306;2022-12-13T10:53:57;9.77;;;5.70;;
43933;SDS011;59081;42.706;23.306;2022-12-13T11:01:41;11.20;;;7.18;;
43933;SDS011;59081;42.706;23.306;2022-12-13T11:04:25;12.70;;;6.82;;
43933;SDS011;59081;42.706;23.306;2022-12-13T11:06:59;9.63;;;5.47;;
43933;SDS011;59081;42.706;23.306;2022-12-13T11:09:32;7.93;;;4.75;;
43933;SDS011;59081;42.706;23.306;2022-12-13T11:11:59;9.45;;;5.43;;
43933;SDS011;59081;42.706;23.306;2022-12-13T11:14:28;8.25;;;5.50;;
43933;SDS011;59081;42.706;23.306;2022-12-13T11:17:12;7.82;;;4.90;;
43933;SDS011;59081;42.706;23.306;2022-12-13T11:19:45;9.10;;;5.43;;
43933;SDS011;59081;42.706;23.306;2022-12-13T11:22:19;7.95;;;4.75;;
43933;SDS011;59081;42.706;23.306;2022-12-13T11:24:48;7.18;;;4.50;;
43933;SDS011;59081;42.706;23.306;2022-12-13T11:28:00;10.57;;;4.75;;
43933;SDS011;59081;42.706;23.306;2022-12-13T11:38:51;7.82;;;5.18;;
43933;SDS011;59081;42.706;23.306;2022-12-13T11:41:28;7.50;;;5.20;;
43933;SDS011;59081;42.706;23.306;2022-12-13T11:44:00;9.45;;;5.07;;
43933;SDS011;59081;42.706;23.306;2022-12-13T11:46:37;9.30;;;5.70;;
43933;SDS011;59081;42.706;23.306;2022-12-13T11:49:16;9.80;;;5.60;;
43933;SDS011;59081;42.706;23.306;2022-12-13T11:51:55;10.88;;;6.05;;
43933;SDS011;59081;42.706;23.306;2022-12-13T11:57:14;13.18;;;7.35;;
43933;SDS011;59081;42.706;23.306;2022-12-13T11:59:49;18.13;;;7.55;;
43933;SDS011;59081;42.706;23.306;2022-12-13T12:02:31;9.68;;;6.35;;
43933;SDS011;59081;42.706;23.306;2022-12-13T12:05:00;9.35;;;5.82;;
43933;SDS011;59081;42.706;23.306;2022-12-13T12:07:38;9.10;;;5.95;;
43933;SDS011;59081;42.706;23.306;2022-12-13T12:13:06;11.68;;;5.57;;
43933;SDS011;59081;42.706;23.306;2022-12-13T12:16:05;9.18;;;5.50;;
43933;SDS011;59081;42.706;23.306;2022-12-13T12:18:32;9.60;;;5.40;;
43933;SDS011;59081;42.706;23.306;2022-12-13T12:26:11;7.65;;;4.82;;
43933;SDS011;59081;42.706;23.306;2022-12-13T12:34:04;12.18;;;6.05;;
43933;SDS011;59081;42.706;23.306;2022-12-13T12:37:04;11.73;;;5.18;;
43933;SDS011;59081;42.706;23.306;2022-12-13T12:59:00;10.88;;;7.38;;
43933;SDS011;59081;42.706;23.306;2022-12-13T13:01:54;8.82;;;6.03;;
43933;SDS011;59081;42.706;23.306;2022-12-13T13:04:30;11.02;;;7.57;;
43933;SDS011;59081;42.706;23.306;2022-12-13T13:07:02;11.52;;;7.05;;
43933;SDS011;59081;42.706;23.306;2022-12-13T13:09:34;13.35;;;8.30;;
43933;SDS011;59081;42.706;23.306;2022-12-13T13:12:02;20.00;;;10.98;;
43933;SDS011;59081;42.706;23.306;2022-12-13T13:14:34;14.30;;;9.25;;
43933;SDS011;59081;42.706;23.306;2022-12-13T13:19:48;12.30;;;7.22;;
43933;SDS011;59081;42.706;23.306;2022-12-13T13:22:25;12.45;;;6.70;;
43933;SDS011;59081;42.706;23.306;2022-12-13T13:24:59;13.95;;;7.05;;
43933;SDS011;59081;42.706;23.306;2022-12-13T13:27:28;13.50;;;7.75;;
43933;SDS011;59081;42.706;23.306;2022-12-13T13:30:05;16.17;;;8.57;;
43933;SDS011;59081;42.706;23.306;2022-12-13T13:32:41;8.40;;;5.40;;
43933;SDS011;59081;42.706;23.306;2022-12-13T13:37:54;19.75;;;6.35;;
43933;SDS011;59081;42.706;23.306;2022-12-13T13:45:28;12.00;;;6.00;;
43933;SDS011;59081;42.706;23.306;2022-12-13T13:48:01;9.70;;;5.93;;
43933;SDS011;59081;42.706;23.306;2022-12-13T13:59:22;10.57;;;6.22;;
43933;SDS011;59081;42.706;23.306;2022-12-13T14:02:12;18.77;;;6.65;;
43933;SDS011;59081;42.706;23.306;2022-12-13T14:21:12;21.15;;;12.48;;
43933;SDS011;59081;42.706;23.306;2022-12-13T14:26:46;18.20;;;10.63;;
43933;SDS011;59081;42.706;23.306;2022-12-13T14:29:16;19.05;;;10.63;;
43933;SDS011;59081;42.706;23.306;2022-12-13T14:31:53;20.25;;;9.95;;
43933;SDS011;59081;42.706;23.306;2022-12-13T14:34:23;18.88;;;10.35;;
43933;SDS011;59081;42.706;23.306;2022-12-13T14:39:27;20.85;;;10.07;;
43933;SDS011;59081;42.706;23.306;2022-12-13T14:41:56;17.42;;;10.05;;
43933;SDS011;59081;42.706;23.306;2022-12-13T14:46:53;23.70;;;12.63;;
43933;SDS011;59081;42.706;23.306;2022-12-13T14:49:21;26.35;;;15.30;;
43933;SDS011;59081;42.706;23.306;2022-12-13T14:51:49;22.65;;;12.98;;
43933;SDS011;59081;42.706;23.306;2022-12-13T14:54:24;25.25;;;13.82;;
43933;SDS011;59081;42.706;23.306;2022-12-13T14:56:56;31.67;;;16.27;;
43933;SDS011;59081;42.706;23.306;2022-12-13T14:59:27;31.98;;;16.13;;
43933;SDS011;59081;42.706;23.306;2022-12-13T15:01:54;30.23;;;15.93;;
43933;SDS011;59081;42.706;23.306;2022-12-13T15:09:39;37.80;;;19.45;;
43933;SDS011;59081;42.706;23.306;2022-12-13T15:12:13;36.00;;;18.00;;
43933;SDS011;59081;42.706;23.306;2022-12-13T15:14:44;37.65;;;20.13;;
43933;SDS011;59081;42.706;23.306;2022-12-13T15:17:24;37.47;;;17.08;;
43933;SDS011;59081;42.706;23.306;2022-12-13T15:19:52;39.33;;;18.67;;
43933;SDS011;59081;42.706;23.306;2022-12-13T15:22:17;36.35;;;17.67;;
43933;SDS011;59081;42.706;23.306;2022-12-13T15:24:43;32.80;;;16.23;;
43933;SDS011;59081;42.706;23.306;2022-12-13T15:27:16;33.95;;;20.17;;
43933;SDS011;59081;42.706;23.306;2022-12-13T15:29:43;30.83;;;17.40;;
43933;SDS011;59081;42.706;23.306;2022-12-13T15:32:14;26.00;;;11.48;;
43933;SDS011;59081;42.706;23.306;2022-12-13T15:34:46;29.48;;;13.65;;
43933;SDS011;59081;42.706;23.306;2022-12-13T15:39:41;48.72;;;26.02;;
43933;SDS011;59081;42.706;23.306;2022-12-13T15:42:19;47.00;;;24.90;;
43933;SDS011;59081;42.706;23.306;2022-12-13T15:44:49;47.95;;;25.05;;
43933;SDS011;59081;42.706;23.306;2022-12-13T15:50:04;51.28;;;23.77;;
43933;SDS011;59081;42.706;23.306;2022-12-13T15:57:47;51.63;;;24.98;;
43933;SDS011;59081;42.706;23.306;2022-12-13T16:02:47;55.97;;;28.25;;
43933;SDS011;59081;42.706;23.306;2022-12-13T16:05:19;35.33;;;17.27;;
43933;SDS011;59081;42.706;23.306;2022-12-13T16:07:50;46.92;;;24.35;;
43933;SDS011;59081;42.706;23.306;2022-12-13T16:10:16;47.30;;;23.60;;
43933;SDS011;59081;42.706;23.306;2022-12-13T16:12:50;47.38;;;21.83;;
43933;SDS011;59081;42.706;23.306;2022-12-13T16:15:20;39.58;;;19.98;;
43933;SDS011;59081;42.706;23.306;2022-12-13T16:17:52;46.42;;;24.02;;
43933;SDS011;59081;42.706;23.306;2022-12-13T16:20:21;47.03;;;25.17;;
43933;SDS011;59081;42.706;23.306;2022-12-13T16:22:47;56.10;;;27.73;;
43933;SDS011;59081;42.706;23.306;2022-12-13T16:25:17;52.05;;;24.75;;
43933;SDS011;59081;42.706;23.306;2022-12-13T16:27:43;52.72;;;24.48;;
43933;SDS011;59081;42.706;23.306;2022-12-13T16:32:38;40.60;;;21.98;;
43933;SDS011;59081;42.706;23.306;2022-12-13T16:35:04;44.13;;;23.90;;
43933;SDS011;59081;42.706;23.306;2022-12-13T16:37:30;45.97;;;22.77;;
43933;SDS011;59081;42.706;23.306;2022-12-13T16:39:56;53.50;;;24.10;;
43933;SDS011;59081;42.706;23.306;2022-12-13T16:42:22;41.20;;;22.35;;
43933;SDS011;59081;42.706;23.306;2022-12-13T16:44:48;44.45;;;23.35;;
43933;SDS011;59081;42.706;23.306;2022-12-13T16:47:14;40.22;;;20.58;;
43933;SDS011;59081;42.706;23.306;2022-12-13T16:49:41;55.42;;;27.65;;
43933;SDS011;59081;42.706;23.306;2022-12-13T16:52:06;48.58;;;26.48;;
43933;SDS011;59081;42.706;23.306;2022-12-13T16:54:32;51.50;;;27.67;;